Time,TemperatureF,DewpointF,PressureIn,WindDirection,WindDirectionDegrees,WindSpeedMPH,WindSpeedGustMPH,Humidity,HourlyPrecipIn,Conditions,Clouds,dailyrainin,SoftwareType,DateUTC
2013-04-27 00:01:00,49.6,34.5,30.40,WNW,287,0.0,1.0,56,0.00,,,0.00,meteohub,2013-04-27 04:01:00,
2013-04-27 00:02:00,49.6,34.5,30.40,WNW,287,0.0,1.0,56,0.00,,,0.00,meteohub,2013-04-27 04:02:00,
2013-04-27 00:07:00,49.5,33.4,30.40,WNW,287,0.0,1.0,54,0.00,,,0.00,meteohub,2013-04-27 04:07:00,
2013-04-27 00:13:00,49.5,33.4,30.39,WNW,288,0.0,1.0,54,0.00,,,0.00,meteohub,2013-04-27 04:13:00,
2013-04-27 00:19:00,49.3,33.3,30.39,WNW,288,0.0,0.0,54,0.00,,,0.00,meteohub,2013-04-27 04:19:00,
2013-04-27 00:25:00,49.3,33.3,30.39,WNW,286,0.0,0.0,54,0.00,,,0.00,meteohub,2013-04-27 04:25:00,
2013-04-27 00:31:00,49.1,33.3,30.39,WNW,286,0.0,0.0,54,0.00,,,0.00,meteohub,2013-04-27 04:31:00,
2013-04-27 00:37:00,49.1,33.6,30.39,WNW,286,0.0,0.0,55,0.00,,,0.00,meteohub,2013-04-27 04:37:00,
2013-04-27 00:42:00,48.9,33.1,30.39,WNW,286,0.0,0.0,54,0.00,,,0.00,meteohub,2013-04-27 04:42:00,
2013-04-27 00:47:00,48.7,32.9,30.39,WNW,286,0.0,0.0,54,0.00,,,0.00,meteohub,2013-04-27 04:47:00,
2013-04-27 00:52:00,48.7,33.3,30.39,WNW,286,0.0,0.0,55,0.00,,,0.00,meteohub,2013-04-27 04:52:00,
2013-04-27 00:57:00,48.6,33.1,30.39,WNW,286,0.0,0.0,55,0.00,,,0.00,meteohub,2013-04-27 04:57:00,
2013-04-27 01:02:00,48.4,33.4,30.39,WNW,286,0.0,0.0,56,0.00,,,0.00,meteohub,2013-04-27 05:02:00,
2013-04-27 01:07:00,48.0,33.1,30.39,WNW,286,0.0,1.0,56,0.00,,,0.00,meteohub,2013-04-27 05:07:00,
2013-04-27 01:12:00,47.7,33.3,30.39,WNW,286,0.0,1.0,57,0.00,,,0.00,meteohub,2013-04-27 05:12:00,
2013-04-27 01:17:00,47.5,32.5,30.39,WNW,286,0.0,0.0,56,0.00,,,0.00,meteohub,2013-04-27 05:17:00,
2013-04-27 01:22:00,47.1,33.1,30.39,West,279,0.0,0.0,58,0.00,,,0.00,meteohub,2013-04-27 05:22:00,
2013-04-27 01:27:00,46.9,32.5,30.39,West,279,0.0,0.0,57,0.00,,,0.00,meteohub,2013-04-27 05:27:00,
2013-04-27 01:32:00,46.9,32.5,30.39,West,279,0.0,1.0,57,0.00,,,0.00,meteohub,2013-04-27 05:32:00,
2013-04-27 01:37:00,46.8,33.6,30.39,WNW,286,0.0,2.0,60,0.00,,,0.00,meteohub,2013-04-27 05:37:00,
2013-04-27 01:42:00,46.6,34.3,30.39,WNW,285,0.0,2.0,62,0.00,,,0.00,meteohub,2013-04-27 05:42:00,
2013-04-27 01:47:00,46.0,33.3,30.39,WNW,284,0.0,2.0,61,0.00,,,0.00,meteohub,2013-04-27 05:47:00,
2013-04-27 01:52:00,45.7,33.1,30.39,WNW,284,0.0,1.0,61,0.00,,,0.00,meteohub,2013-04-27 05:52:00,
2013-04-27 01:57:00,45.5,33.3,30.39,WNW,285,0.0,1.0,62,0.00,,,0.00,meteohub,2013-04-27 05:57:00,
2013-04-27 02:02:00,45.5,33.6,30.39,WNW,285,0.0,0.0,63,0.00,,,0.00,meteohub,2013-04-27 06:02:00,
2013-04-27 02:07:00,45.3,33.4,30.39,NW,318,0.0,0.0,63,0.00,,,0.00,meteohub,2013-04-27 06:07:00,
2013-04-27 02:12:00,45.1,33.6,30.39,NW,318,0.0,0.0,64,0.00,,,0.00,meteohub,2013-04-27 06:12:00,
2013-04-27 02:17:00,45.1,34.2,30.39,SE,142,0.0,1.0,65,0.00,,,0.00,meteohub,2013-04-27 06:17:00,
2013-04-27 02:22:00,44.8,33.8,30.38,SE,142,0.0,1.0,65,0.00,,,0.00,meteohub,2013-04-27 06:22:00,
2013-04-27 02:29:00,44.2,33.6,30.39,West,277,0.0,1.0,66,0.00,,,0.00,meteohub,2013-04-27 06:29:00,
2013-04-27 02:35:00,43.9,34.0,30.39,West,277,0.0,1.0,68,0.00,,,0.00,meteohub,2013-04-27 06:35:00,
2013-04-27 02:41:00,43.5,33.6,30.39,West,277,0.0,0.0,68,0.00,,,0.00,meteohub,2013-04-27 06:41:00,
2013-04-27 02:47:00,43.3,33.8,30.39,West,277,0.0,0.0,69,0.00,,,0.00,meteohub,2013-04-27 06:47:00,
2013-04-27 02:52:00,43.2,33.6,30.39,West,277,0.0,0.0,69,0.00,,,0.00,meteohub,2013-04-27 06:52:00,
2013-04-27 02:57:00,43.2,33.6,30.39,West,277,0.0,0.0,69,0.00,,,0.00,meteohub,2013-04-27 06:57:00,
2013-04-27 03:02:00,43.2,33.6,30.38,West,277,0.0,0.0,69,0.00,,,0.00,meteohub,2013-04-27 07:02:00,
2013-04-27 03:07:00,43.2,34.0,30.38,West,277,0.0,0.0,70,0.00,,,0.00,meteohub,2013-04-27 07:07:00,
2013-04-27 03:12:00,43.0,33.4,30.38,West,277,0.0,0.0,69,0.00,,,0.00,meteohub,2013-04-27 07:12:00,
2013-04-27 03:17:00,42.8,34.0,30.38,NW,323,0.0,3.0,71,0.00,,,0.00,meteohub,2013-04-27 07:17:00,
2013-04-27 03:22:00,42.6,33.1,30.38,NW,323,0.0,3.0,69,0.00,,,0.00,meteohub,2013-04-27 07:22:00,
2013-04-27 03:27:00,42.4,33.4,30.38,NW,323,0.0,3.0,70,0.00,,,0.00,meteohub,2013-04-27 07:27:00,
2013-04-27 03:32:00,42.4,33.6,30.38,East,80,0.0,1.0,71,0.00,,,0.00,meteohub,2013-04-27 07:32:00,
2013-04-27 03:37:00,42.1,32.4,30.38,East,80,0.0,1.0,68,0.00,,,0.00,meteohub,2013-04-27 07:37:00,
2013-04-27 03:42:00,41.9,32.5,30.37,East,80,0.0,1.0,69,0.00,,,0.00,meteohub,2013-04-27 07:42:00,
2013-04-27 03:47:00,42.1,33.1,30.37,East,80,0.0,1.0,70,0.00,,,0.00,meteohub,2013-04-27 07:47:00,
2013-04-27 03:52:00,41.9,32.9,30.38,East,80,0.0,0.0,70,0.00,,,0.00,meteohub,2013-04-27 07:52:00,
2013-04-27 03:57:00,41.7,33.1,30.38,East,80,0.0,0.0,71,0.00,,,0.00,meteohub,2013-04-27 07:57:00,
2013-04-27 04:02:00,41.5,33.3,30.38,East,92,0.0,0.0,72,0.00,,,0.00,meteohub,2013-04-27 08:02:00,
2013-04-27 04:07:00,41.4,33.1,30.38,East,92,0.0,0.0,72,0.00,,,0.00,meteohub,2013-04-27 08:07:00,
2013-04-27 04:12:00,41.4,32.7,30.38,East,92,0.0,0.0,71,0.00,,,0.00,meteohub,2013-04-27 08:12:00,
2013-04-27 04:17:00,41.4,33.1,30.38,East,92,0.0,0.0,72,0.00,,,0.00,meteohub,2013-04-27 08:17:00,
2013-04-27 04:22:00,41.4,33.1,30.38,East,92,0.0,0.0,72,0.00,,,0.00,meteohub,2013-04-27 08:22:00,
2013-04-27 04:27:00,41.4,32.7,30.38,East,92,0.0,0.0,71,0.00,,,0.00,meteohub,2013-04-27 08:27:00,
2013-04-27 04:32:00,41.4,33.4,30.38,East,92,0.0,0.0,73,0.00,,,0.00,meteohub,2013-04-27 08:32:00,
2013-04-27 04:37:00,41.2,33.3,30.38,East,88,0.0,0.0,73,0.00,,,0.00,meteohub,2013-04-27 08:37:00,
2013-04-27 04:42:00,40.8,33.3,30.38,ESE,106,0.0,0.0,74,0.00,,,0.00,meteohub,2013-04-27 08:42:00,
2013-04-27 04:47:00,40.6,33.1,30.38,NNE,23,0.0,0.0,74,0.00,,,0.00,meteohub,2013-04-27 08:47:00,
2013-04-27 04:52:00,40.3,33.3,30.38,ESE,110,0.0,0.0,76,0.00,,,0.00,meteohub,2013-04-27 08:52:00,
2013-04-27 04:57:00,39.9,32.7,30.38,ESE,110,0.0,0.0,75,0.00,,,0.00,meteohub,2013-04-27 08:57:00,
2013-04-27 05:02:00,39.9,32.9,30.38,ESE,110,0.0,0.0,76,0.00,,,0.00,meteohub,2013-04-27 09:02:00,
2013-04-27 05:07:00,39.7,32.7,30.38,ESE,110,0.0,0.0,76,0.00,,,0.00,meteohub,2013-04-27 09:07:00,
2013-04-27 05:12:00,39.7,32.7,30.38,ESE,110,0.0,0.0,76,0.00,,,0.00,meteohub,2013-04-27 09:12:00,
2013-04-27 05:17:00,39.9,32.9,30.37,ESE,110,0.0,0.0,76,0.00,,,0.00,meteohub,2013-04-27 09:17:00,
2013-04-27 05:22:00,39.9,32.7,30.37,ESE,110,0.0,0.0,75,0.00,,,0.00,meteohub,2013-04-27 09:22:00,
2013-04-27 05:27:00,40.1,32.9,30.37,ESE,110,0.0,0.0,75,0.00,,,0.00,meteohub,2013-04-27 09:27:00,
2013-04-27 05:32:00,40.1,33.1,30.37,ESE,110,0.0,0.0,76,0.00,,,0.00,meteohub,2013-04-27 09:32:00,
2013-04-27 05:37:00,39.9,32.9,30.37,ESE,110,0.0,0.0,76,0.00,,,0.00,meteohub,2013-04-27 09:37:00,
2013-04-27 05:42:00,39.7,33.1,30.38,ENE,77,0.0,0.0,77,0.00,,,0.00,meteohub,2013-04-27 09:42:00,
2013-04-27 05:47:00,39.4,33.1,30.38,ENE,74,0.0,0.0,78,0.00,,,0.00,meteohub,2013-04-27 09:47:00,
2013-04-27 05:52:00,38.8,32.5,30.38,SE,131,0.0,0.0,78,0.00,,,0.00,meteohub,2013-04-27 09:52:00,
2013-04-27 05:57:00,38.7,32.7,30.38,SE,131,0.0,0.0,79,0.00,,,0.00,meteohub,2013-04-27 09:57:00,
2013-04-27 06:02:00,38.3,32.4,30.38,SE,131,0.0,0.0,79,0.00,,,0.00,meteohub,2013-04-27 10:02:00,
2013-04-27 06:07:00,38.3,32.7,30.38,SE,131,0.0,0.0,80,0.00,,,0.00,meteohub,2013-04-27 10:07:00,
2013-04-27 06:12:00,38.5,32.9,30.38,SE,131,0.0,0.0,80,0.00,,,0.00,meteohub,2013-04-27 10:12:00,
2013-04-27 06:17:00,38.5,32.9,30.38,SE,131,0.0,0.0,80,0.00,,,0.00,meteohub,2013-04-27 10:17:00,
2013-04-27 06:22:00,38.5,32.9,30.38,SE,131,0.0,0.0,80,0.00,,,0.00,meteohub,2013-04-27 10:22:00,
2013-04-27 06:27:00,38.5,32.9,30.38,SE,131,0.0,0.0,80,0.00,,,0.00,meteohub,2013-04-27 10:27:00,
2013-04-27 06:32:00,38.3,32.7,30.38,SE,131,0.0,0.0,80,0.00,,,0.00,meteohub,2013-04-27 10:32:00,
2013-04-27 06:37:00,38.3,32.7,30.38,SE,131,0.0,0.0,80,0.00,,,0.00,meteohub,2013-04-27 10:37:00,
2013-04-27 06:42:00,38.5,32.5,30.39,SE,131,0.0,0.0,79,0.00,,,0.00,meteohub,2013-04-27 10:42:00,
2013-04-27 06:47:00,38.7,32.7,30.39,SE,131,0.0,0.0,79,0.00,,,0.00,meteohub,2013-04-27 10:47:00,
2013-04-27 06:52:00,38.7,32.7,30.39,SE,131,0.0,0.0,79,0.00,,,0.00,meteohub,2013-04-27 10:52:00,
2013-04-27 06:57:00,38.8,32.9,30.39,SE,131,0.0,0.0,79,0.00,,,0.00,meteohub,2013-04-27 10:57:00,
2013-04-27 07:02:00,39.0,33.1,30.39,SE,131,0.0,0.0,79,0.00,,,0.00,meteohub,2013-04-27 11:02:00,
2013-04-27 07:07:00,39.4,33.1,30.39,SE,131,0.0,0.0,78,0.00,,,0.00,meteohub,2013-04-27 11:07:00,
2013-04-27 07:12:00,39.4,33.8,30.40,SE,131,0.0,0.0,80,0.00,,,0.00,meteohub,2013-04-27 11:12:00,
2013-04-27 07:17:00,39.4,33.8,30.39,SE,131,0.0,0.0,80,0.00,,,0.00,meteohub,2013-04-27 11:17:00,
2013-04-27 07:22:00,39.4,33.8,30.40,SE,131,0.0,0.0,80,0.00,,,0.00,meteohub,2013-04-27 11:22:00,
2013-04-27 07:27:00,39.4,33.8,30.40,ESE,105,1.0,0.0,80,0.00,,,0.00,meteohub,2013-04-27 11:27:00,
2013-04-27 07:32:00,39.6,34.0,30.40,SSE,156,0.0,1.0,80,0.00,,,0.00,meteohub,2013-04-27 11:32:00,
2013-04-27 07:37:00,39.7,34.3,30.40,SSE,154,1.0,2.0,81,0.00,,,0.00,meteohub,2013-04-27 11:37:00,
2013-04-27 07:42:00,40.3,34.3,30.40,SSE,153,0.0,2.0,79,0.00,,,0.00,meteohub,2013-04-27 11:42:00,
2013-04-27 07:49:00,40.8,34.2,30.40,SSE,153,0.0,1.0,77,0.00,,,0.00,meteohub,2013-04-27 11:49:00,
2013-04-27 07:55:00,41.4,34.3,30.40,SSE,151,0.0,1.0,76,0.00,,,0.00,meteohub,2013-04-27 11:55:00,
2013-04-27 08:01:00,41.7,34.7,30.40,SSE,152,0.0,0.0,76,0.00,,,0.00,meteohub,2013-04-27 12:01:00,
2013-04-27 08:07:00,42.1,34.3,30.40,SSE,152,0.0,0.0,74,0.00,,,0.00,meteohub,2013-04-27 12:07:00,
2013-04-27 08:12:00,42.4,34.7,30.40,SSE,152,0.0,0.0,74,0.00,,,0.00,meteohub,2013-04-27 12:12:00,
2013-04-27 08:17:00,42.4,34.7,30.40,SSE,152,0.0,0.0,74,0.00,,,0.00,meteohub,2013-04-27 12:17:00,
2013-04-27 08:22:00,42.6,34.9,30.40,SSE,152,0.0,0.0,74,0.00,,,0.00,meteohub,2013-04-27 12:22:00,
2013-04-27 08:27:00,42.6,34.9,30.40,SSE,152,0.0,0.0,74,0.00,,,0.00,meteohub,2013-04-27 12:27:00,
2013-04-27 08:32:00,43.0,35.2,30.40,SSE,152,0.0,0.0,74,0.00,,,0.00,meteohub,2013-04-27 12:32:00,
2013-04-27 08:37:00,43.2,35.1,30.40,NW,311,0.0,0.0,73,0.00,,,0.00,meteohub,2013-04-27 12:37:00,
2013-04-27 08:43:00,43.3,34.2,30.40,NW,319,0.0,2.0,70,0.00,,,0.00,meteohub,2013-04-27 12:43:00,
2013-04-27 08:50:00,43.9,34.0,30.40,NW,323,0.0,2.0,68,0.00,,,0.00,meteohub,2013-04-27 12:50:00,
2013-04-27 08:56:00,44.4,33.8,30.40,NW,323,0.0,0.0,66,0.00,,,0.00,meteohub,2013-04-27 12:56:00,
2013-04-27 09:02:00,45.1,33.6,30.40,NW,324,0.0,2.0,64,0.00,,,0.00,meteohub,2013-04-27 13:02:00,
2013-04-27 09:07:00,45.7,33.8,30.40,NNW,336,0.0,3.0,63,0.00,,,0.00,meteohub,2013-04-27 13:07:00,
2013-04-27 09:12:00,46.2,34.0,30.40,NNW,331,1.0,3.0,62,0.00,,,0.00,meteohub,2013-04-27 13:12:00,
2013-04-27 09:17:00,46.9,35.1,30.40,NNW,336,0.0,3.0,63,0.00,,,0.00,meteohub,2013-04-27 13:17:00,
2013-04-27 09:22:00,47.5,35.6,30.40,NNW,330,0.0,3.0,63,0.00,,,0.00,meteohub,2013-04-27 13:22:00,
2013-04-27 09:27:00,48.0,34.9,30.40,NNW,327,1.0,3.0,60,0.00,,,0.00,meteohub,2013-04-27 13:27:00,
2013-04-27 09:32:00,48.7,35.4,30.40,NW,326,0.0,4.0,60,0.00,,,0.00,meteohub,2013-04-27 13:32:00,
2013-04-27 09:37:00,49.5,35.2,30.40,NNW,339,1.0,4.0,58,0.00,,,0.00,meteohub,2013-04-27 13:37:00,
2013-04-27 09:44:00,50.4,35.8,30.40,NW,326,3.0,4.0,57,0.00,,,0.00,meteohub,2013-04-27 13:44:00,
2013-04-27 09:51:00,50.7,35.6,30.40,NNW,331,2.0,4.0,56,0.00,,,0.00,meteohub,2013-04-27 13:51:00,
2013-04-27 09:57:00,51.6,35.6,30.40,NW,322,1.0,4.0,54,0.00,,,0.00,meteohub,2013-04-27 13:57:00,
2013-04-27 10:03:00,52.5,35.4,30.40,NNW,330,1.0,4.0,52,0.00,,,0.00,meteohub,2013-04-27 14:03:00,
2013-04-27 10:09:00,53.2,35.6,30.40,NNW,342,2.0,4.0,51,0.00,,,0.00,meteohub,2013-04-27 14:09:00,
2013-04-27 10:15:00,54.0,36.7,30.39,NNW,335,2.0,5.0,52,0.00,,,0.00,meteohub,2013-04-27 14:15:00,
2013-04-27 10:21:00,54.9,36.5,30.39,NNW,331,1.0,4.0,50,0.00,,,0.00,meteohub,2013-04-27 14:21:00,
2013-04-27 10:27:00,55.2,36.3,30.39,NNW,341,2.0,5.0,49,0.00,,,0.00,meteohub,2013-04-27 14:27:00,
2013-04-27 10:32:00,55.8,36.9,30.39,NNW,329,2.0,5.0,49,0.00,,,0.00,meteohub,2013-04-27 14:32:00,
2013-04-27 10:37:00,56.5,37.0,30.38,NW,325,2.0,4.0,48,0.00,,,0.00,meteohub,2013-04-27 14:37:00,
2013-04-27 10:42:00,57.2,37.8,30.38,NW,308,2.0,4.0,48,0.00,,,0.00,meteohub,2013-04-27 14:42:00,
2013-04-27 10:47:00,57.7,37.6,30.38,NNW,333,3.0,5.0,47,0.00,,,0.00,meteohub,2013-04-27 14:47:00,
2013-04-27 10:52:00,58.5,38.3,30.38,NW,323,2.0,5.0,47,0.00,,,0.00,meteohub,2013-04-27 14:52:00,
2013-04-27 10:57:00,59.5,39.4,30.38,WNW,296,3.0,5.0,47,0.00,,,0.00,meteohub,2013-04-27 14:57:00,
2013-04-27 11:02:00,60.1,39.2,30.38,NNW,341,5.0,5.0,46,0.00,,,0.00,meteohub,2013-04-27 15:02:00,
2013-04-27 11:07:00,60.4,39.6,30.38,WNW,301,0.0,6.0,46,0.00,,,0.00,meteohub,2013-04-27 15:07:00,
2013-04-27 11:12:00,61.9,40.8,30.38,NW,306,2.0,6.0,46,0.00,,,0.00,meteohub,2013-04-27 15:12:00,
2013-04-27 11:17:00,63.7,39.6,30.37,SE,138,1.0,6.0,41,0.00,,,0.00,meteohub,2013-04-27 15:17:00,
2013-04-27 11:22:00,64.2,40.1,30.37,SW,231,2.0,5.0,41,0.00,,,0.00,meteohub,2013-04-27 15:22:00,
2013-04-27 11:27:00,64.6,41.0,30.37,SW,229,3.0,5.0,42,0.00,,,0.00,meteohub,2013-04-27 15:27:00,
2013-04-27 11:32:00,64.8,40.5,30.37,NW,313,1.0,4.0,41,0.00,,,0.00,meteohub,2013-04-27 15:32:00,
2013-04-27 11:37:00,65.5,41.7,30.37,South,177,0.0,4.0,42,0.00,,,0.00,meteohub,2013-04-27 15:37:00,
2013-04-27 11:42:00,66.4,39.4,30.37,East,88,2.0,5.0,37,0.00,,,0.00,meteohub,2013-04-27 15:42:00,
2013-04-27 11:47:00,66.9,39.7,30.36,South,171,1.0,5.0,37,0.00,,,0.00,meteohub,2013-04-27 15:47:00,
2013-04-27 11:52:00,67.5,41.0,30.36,South,180,3.0,5.0,38,0.00,,,0.00,meteohub,2013-04-27 15:52:00,
2013-04-27 11:57:00,67.8,40.6,30.36,East,97,1.0,5.0,37,0.00,,,0.00,meteohub,2013-04-27 15:57:00,
2013-04-27 12:02:00,68.2,38.7,30.36,SE,138,2.0,4.0,34,0.00,,,0.00,meteohub,2013-04-27 16:02:00,
2013-04-27 12:07:00,68.4,40.3,30.36,East,100,5.0,5.0,36,0.00,,,0.00,meteohub,2013-04-27 16:07:00,
2013-04-27 12:13:00,68.5,38.3,30.35,SE,142,1.0,6.0,33,0.00,,,0.00,meteohub,2013-04-27 16:13:00,
2013-04-27 12:20:00,68.5,37.6,30.35,WNW,300,1.0,6.0,32,0.00,,,0.00,meteohub,2013-04-27 16:20:00,
2013-04-27 12:26:00,69.6,39.2,30.35,NW,314,2.0,5.0,33,0.00,,,0.00,meteohub,2013-04-27 16:26:00,
2013-04-27 12:32:00,70.2,39.7,30.35,NE,36,2.0,5.0,33,0.00,,,0.00,meteohub,2013-04-27 16:32:00,
2013-04-27 12:37:00,70.3,39.9,30.34,SSE,159,1.0,6.0,33,0.00,,,0.00,meteohub,2013-04-27 16:37:00,
2013-04-27 12:42:00,70.3,38.3,30.34,South,169,3.0,6.0,31,0.00,,,0.00,meteohub,2013-04-27 16:42:00,
2013-04-27 12:47:00,69.6,39.9,30.33,SSW,198,0.0,5.0,34,0.00,,,0.00,meteohub,2013-04-27 16:47:00,
2013-04-27 12:52:00,70.3,39.9,30.33,SW,226,2.0,8.0,33,0.00,,,0.00,meteohub,2013-04-27 16:52:00,
2013-04-27 12:59:00,70.7,38.7,30.32,SE,132,2.0,8.0,31,0.00,,,0.00,meteohub,2013-04-27 16:59:00,
2013-04-27 13:05:00,71.2,39.0,30.32,SSW,201,2.0,5.0,31,0.00,,,0.00,meteohub,2013-04-27 17:05:00,
2013-04-27 13:11:00,72.0,42.8,30.32,West,263,1.0,5.0,35,0.00,,,0.00,meteohub,2013-04-27 17:11:00,
2013-04-27 13:17:00,72.5,39.4,30.32,SSE,160,5.0,5.0,30,0.00,,,0.00,meteohub,2013-04-27 17:17:00,
2013-04-27 13:23:00,72.0,38.8,30.31,NW,319,2.0,5.0,30,0.00,,,0.00,meteohub,2013-04-27 17:23:00,
2013-04-27 13:29:00,71.8,39.6,30.31,ESE,113,1.0,5.0,31,0.00,,,0.00,meteohub,2013-04-27 17:29:00,
2013-04-27 13:35:00,71.6,39.4,30.31,North,350,2.0,9.0,31,0.00,,,0.00,meteohub,2013-04-27 17:35:00,
2013-04-27 13:41:00,71.8,41.2,30.31,SSE,162,1.0,9.0,33,0.00,,,0.00,meteohub,2013-04-27 17:41:00,
2013-04-27 13:47:00,72.3,39.2,30.31,ENE,74,2.0,5.0,30,0.00,,,0.00,meteohub,2013-04-27 17:47:00,
2013-04-27 13:52:00,72.3,39.2,30.31,NNW,340,3.0,8.0,30,0.00,,,0.00,meteohub,2013-04-27 17:52:00,
2013-04-27 13:57:00,72.3,39.9,30.31,NE,49,1.0,8.0,31,0.00,,,0.00,meteohub,2013-04-27 17:57:00,
2013-04-27 14:02:00,72.7,39.4,30.31,WSW,243,1.0,8.0,30,0.00,,,0.00,meteohub,2013-04-27 18:02:00,
2013-04-27 14:07:00,72.3,39.9,30.31,SSE,156,2.0,5.0,31,0.00,,,0.00,meteohub,2013-04-27 18:07:00,
2013-04-27 14:12:00,72.9,39.6,30.31,South,180,0.0,5.0,30,0.00,,,0.00,meteohub,2013-04-27 18:12:00,
2013-04-27 14:17:00,73.6,40.3,30.30,ESE,121,2.0,5.0,30,0.00,,,0.00,meteohub,2013-04-27 18:17:00,
2013-04-27 14:22:00,73.8,40.5,30.31,SE,131,2.0,7.0,30,0.00,,,0.00,meteohub,2013-04-27 18:22:00,
2013-04-27 14:27:00,73.4,41.0,30.30,West,265,0.0,7.0,31,0.00,,,0.00,meteohub,2013-04-27 18:27:00,
2013-04-27 14:32:00,73.8,41.2,30.30,SSE,156,1.0,7.0,31,0.00,,,0.00,meteohub,2013-04-27 18:32:00,
2013-04-27 14:37:00,73.9,39.7,30.30,SE,136,3.0,5.0,29,0.00,,,0.00,meteohub,2013-04-27 18:37:00,
2013-04-27 14:42:00,74.1,41.5,30.30,WSW,245,3.0,5.0,31,0.00,,,0.00,meteohub,2013-04-27 18:42:00,
2013-04-27 14:47:00,74.1,39.9,30.30,South,185,1.0,5.0,29,0.00,,,0.00,meteohub,2013-04-27 18:47:00,
2013-04-27 14:52:00,73.8,42.8,30.30,SW,229,2.0,5.0,33,0.00,,,0.00,meteohub,2013-04-27 18:52:00,
2013-04-27 14:57:00,73.9,37.8,30.29,South,186,2.0,4.0,27,0.00,,,0.00,meteohub,2013-04-27 18:57:00,
2013-04-27 15:03:00,74.5,42.6,30.29,NW,321,1.0,4.0,32,0.00,,,0.00,meteohub,2013-04-27 19:03:00,
2013-04-27 15:09:00,74.7,38.5,30.29,SSE,156,1.0,5.0,27,0.00,,,0.00,meteohub,2013-04-27 19:09:00,
2013-04-27 15:15:00,74.5,41.0,30.29,East,91,6.0,8.0,30,0.00,,,0.00,meteohub,2013-04-27 19:15:00,
2013-04-27 15:21:00,74.5,38.3,30.28,ENE,71,2.0,7.0,27,0.00,,,0.00,meteohub,2013-04-27 19:21:00,
2013-04-27 15:27:00,73.6,39.4,30.28,WNW,302,1.0,7.0,29,0.00,,,0.00,meteohub,2013-04-27 19:27:00,
2013-04-27 15:32:00,73.6,39.4,30.27,SSW,200,2.0,6.0,29,0.00,,,0.00,meteohub,2013-04-27 19:32:00,
2013-04-27 15:39:00,73.6,40.3,30.27,South,174,2.0,5.0,30,0.00,,,0.00,meteohub,2013-04-27 19:39:00,
2013-04-27 15:45:00,73.8,41.2,30.27,NW,317,2.0,6.0,31,0.00,,,0.00,meteohub,2013-04-27 19:45:00,
2013-04-27 15:51:00,73.9,38.8,30.26,WNW,295,0.0,6.0,28,0.00,,,0.00,meteohub,2013-04-27 19:51:00,
2013-04-27 15:57:00,74.1,39.9,30.26,SE,140,0.0,6.0,29,0.00,,,0.00,meteohub,2013-04-27 19:57:00,
2013-04-27 16:02:00,73.8,38.7,30.26,ESE,103,2.0,7.0,28,0.00,,,0.00,meteohub,2013-04-27 20:02:00,
2013-04-27 16:07:00,73.2,39.9,30.26,SSE,150,1.0,7.0,30,0.00,,,0.00,meteohub,2013-04-27 20:07:00,
2013-04-27 16:12:00,73.6,40.3,30.26,SE,144,0.0,7.0,30,0.00,,,0.00,meteohub,2013-04-27 20:12:00,
2013-04-27 16:17:00,73.9,42.3,30.26,SE,139,1.0,6.0,32,0.00,,,0.00,meteohub,2013-04-27 20:17:00,
2013-04-27 16:22:00,74.3,39.0,30.26,SE,140,0.0,5.0,28,0.00,,,0.00,meteohub,2013-04-27 20:22:00,
2013-04-27 16:27:00,73.9,40.5,30.25,North,355,1.0,5.0,30,0.00,,,0.00,meteohub,2013-04-27 20:27:00,
2013-04-27 16:32:00,73.4,40.1,30.25,NNE,21,1.0,5.0,30,0.00,,,0.00,meteohub,2013-04-27 20:32:00,
2013-04-27 16:37:00,72.9,39.6,30.25,South,177,2.0,4.0,30,0.00,,,0.00,meteohub,2013-04-27 20:37:00,
2013-04-27 16:42:00,72.5,40.1,30.25,ESE,113,2.0,7.0,31,0.00,,,0.00,meteohub,2013-04-27 20:42:00,
2013-04-27 16:47:00,72.7,42.6,30.25,SSE,155,2.0,7.0,34,0.00,,,0.00,meteohub,2013-04-27 20:47:00,
2013-04-27 16:52:00,72.3,39.9,30.25,NNW,332,2.0,7.0,31,0.00,,,0.00,meteohub,2013-04-27 20:52:00,
2013-04-27 16:57:00,72.3,40.8,30.25,WSW,246,2.0,6.0,32,0.00,,,0.00,meteohub,2013-04-27 20:57:00,
2013-04-27 17:02:00,72.0,37.9,30.25,SSE,159,2.0,5.0,29,0.00,,,0.00,meteohub,2013-04-27 21:02:00,
2013-04-27 17:07:00,71.4,38.3,30.25,ESE,121,3.0,6.0,30,0.00,,,0.00,meteohub,2013-04-27 21:07:00,
2013-04-27 17:13:00,71.1,38.8,30.25,NNW,342,0.0,6.0,31,0.00,,,0.00,meteohub,2013-04-27 21:13:00,
2013-04-27 17:19:00,70.9,40.3,30.25,South,173,0.0,4.0,33,0.00,,,0.00,meteohub,2013-04-27 21:19:00,
2013-04-27 17:25:00,70.3,38.3,30.25,WNW,300,2.0,3.0,31,0.00,,,0.00,meteohub,2013-04-27 21:25:00,
2013-04-27 17:31:00,69.6,38.5,30.25,East,80,2.0,5.0,32,0.00,,,0.00,meteohub,2013-04-27 21:31:00,
2013-04-27 17:37:00,69.1,37.9,30.25,WNW,292,3.0,8.0,32,0.00,,,0.00,meteohub,2013-04-27 21:37:00,
2013-04-27 17:42:00,68.5,38.3,30.25,WNW,288,3.0,8.0,33,0.00,,,0.00,meteohub,2013-04-27 21:42:00,
2013-04-27 17:47:00,68.5,39.0,30.25,South,187,0.0,8.0,34,0.00,,,0.00,meteohub,2013-04-27 21:47:00,
2013-04-27 17:52:00,68.5,39.0,30.25,SSE,150,2.0,6.0,34,0.00,,,0.00,meteohub,2013-04-27 21:52:00,
2013-04-27 17:57:00,68.4,38.8,30.25,SSE,167,0.0,6.0,34,0.00,,,0.00,meteohub,2013-04-27 21:57:00,
2013-04-27 18:02:00,68.2,37.9,30.24,SW,232,2.0,6.0,33,0.00,,,0.00,meteohub,2013-04-27 22:02:00,
2013-04-27 18:07:00,68.0,40.8,30.25,South,170,1.0,5.0,37,0.00,,,0.00,meteohub,2013-04-27 22:07:00,
2013-04-27 18:13:00,67.8,39.9,30.24,SSE,154,0.0,3.0,36,0.00,,,0.00,meteohub,2013-04-27 22:13:00,
2013-04-27 18:19:00,67.8,38.5,30.24,NW,326,2.0,3.0,34,0.00,,,0.00,meteohub,2013-04-27 22:19:00,
2013-04-27 18:25:00,67.6,39.0,30.24,West,277,1.0,4.0,35,0.00,,,0.00,meteohub,2013-04-27 22:25:00,
2013-04-27 18:31:00,67.5,39.6,30.24,SW,216,0.0,4.0,36,0.00,,,0.00,meteohub,2013-04-27 22:31:00,
2013-04-27 18:37:00,67.3,38.7,30.24,SSE,164,3.0,4.0,35,0.00,,,0.00,meteohub,2013-04-27 22:37:00,
2013-04-27 18:43:00,66.9,39.0,30.24,NNW,344,2.0,7.0,36,0.00,,,0.00,meteohub,2013-04-27 22:43:00,
2013-04-27 18:49:00,66.7,39.0,30.23,NNW,348,2.0,7.0,36,0.00,,,0.00,meteohub,2013-04-27 22:49:00,
2013-04-27 18:55:00,66.6,39.6,30.23,North,5,3.0,8.0,37,0.00,,,0.00,meteohub,2013-04-27 22:55:00,
2013-04-27 19:02:00,66.4,39.4,30.23,East,99,1.0,8.0,37,0.00,,,0.00,meteohub,2013-04-27 23:02:00,
2013-04-27 19:07:00,66.2,39.2,30.23,SSW,194,3.0,5.0,37,0.00,,,0.00,meteohub,2013-04-27 23:07:00,
2013-04-27 19:12:00,66.0,39.7,30.23,South,187,2.0,6.0,38,0.00,,,0.00,meteohub,2013-04-27 23:12:00,
2013-04-27 19:17:00,65.8,39.6,30.23,SSE,167,1.0,6.0,38,0.00,,,0.00,meteohub,2013-04-27 23:17:00,
2013-04-27 19:22:00,65.5,39.9,30.23,NW,309,2.0,6.0,39,0.00,,,0.00,meteohub,2013-04-27 23:22:00,
2013-04-27 19:29:00,65.1,39.6,30.23,East,101,1.0,6.0,39,0.00,,,0.00,meteohub,2013-04-27 23:29:00,
2013-04-27 19:35:00,64.9,40.1,30.23,SE,136,2.0,5.0,40,0.00,,,0.00,meteohub,2013-04-27 23:35:00,
2013-04-27 19:41:00,64.8,39.9,30.23,ENE,59,5.0,5.0,40,0.00,,,0.00,meteohub,2013-04-27 23:41:00,
2013-04-27 19:47:00,64.6,39.7,30.23,NW,325,3.0,5.0,40,0.00,,,0.00,meteohub,2013-04-27 23:47:00,
2013-04-27 19:54:00,64.2,39.4,30.23,East,81,1.0,6.0,40,0.00,,,0.00,meteohub,2013-04-27 23:54:00,
2013-04-27 20:00:00,64.0,39.9,30.22,WNW,302,2.0,7.0,41,0.00,,,0.00,meteohub,2013-04-28 00:00:00,
2013-04-27 20:06:00,63.9,39.7,30.23,NNW,334,3.0,6.0,41,0.00,,,0.00,meteohub,2013-04-28 00:06:00,
2013-04-27 20:12:00,63.7,39.6,30.23,WNW,297,1.0,6.0,41,0.00,,,0.00,meteohub,2013-04-28 00:12:00,
2013-04-27 20:17:00,63.3,39.9,30.23,NNE,28,3.0,6.0,42,0.00,,,0.00,meteohub,2013-04-28 00:17:00,
2013-04-27 20:22:00,63.3,39.9,30.23,North,0,2.0,7.0,42,0.00,,,0.00,meteohub,2013-04-28 00:22:00,
2013-04-27 20:27:00,63.1,39.0,30.23,SSE,153,2.0,7.0,41,0.00,,,0.00,meteohub,2013-04-28 00:27:00,
2013-04-27 20:33:00,63.1,39.0,30.23,South,175,2.0,7.0,41,0.00,,,0.00,meteohub,2013-04-28 00:33:00,
2013-04-27 20:39:00,63.0,39.6,30.23,NNW,342,3.0,9.0,42,0.00,,,0.00,meteohub,2013-04-28 00:39:00,
2013-04-27 20:45:00,63.0,39.6,30.23,West,267,2.0,9.0,42,0.00,,,0.00,meteohub,2013-04-28 00:45:00,
2013-04-27 20:51:00,62.8,39.4,30.23,WNW,292,2.0,8.0,42,0.00,,,0.00,meteohub,2013-04-28 00:51:00,
2013-04-27 20:57:00,62.8,39.4,30.23,NE,47,2.0,8.0,42,0.00,,,0.00,meteohub,2013-04-28 00:57:00,
2013-04-27 21:04:00,62.6,39.2,30.23,NNE,17,2.0,6.0,42,0.00,,,0.00,meteohub,2013-04-28 01:04:00,
2013-04-27 21:10:00,62.6,39.2,30.23,SW,234,4.0,7.0,42,0.00,,,0.00,meteohub,2013-04-28 01:10:00,
2013-04-27 21:16:00,62.4,39.0,30.23,NNW,341,4.0,7.0,42,0.00,,,0.00,meteohub,2013-04-28 01:16:00,
2013-04-27 21:22:00,62.4,39.0,30.24,NNW,345,1.0,7.0,42,0.00,,,0.00,meteohub,2013-04-28 01:22:00,
2013-04-27 21:28:00,62.2,38.8,30.24,WNW,294,2.0,7.0,42,0.00,,,0.00,meteohub,2013-04-28 01:28:00,
2013-04-27 21:34:00,62.2,38.8,30.24,SW,218,2.0,7.0,42,0.00,,,0.00,meteohub,2013-04-28 01:34:00,
2013-04-27 21:42:00,62.1,39.4,30.24,East,96,2.0,8.0,43,0.00,,,0.00,meteohub,2013-04-28 01:42:00,
2013-04-27 21:47:00,62.1,38.7,30.24,NNE,13,1.0,8.0,42,0.00,,,0.00,meteohub,2013-04-28 01:47:00,
2013-04-27 21:52:00,61.9,38.5,30.24,NW,310,1.0,7.0,42,0.00,,,0.00,meteohub,2013-04-28 01:52:00,
2013-04-27 21:59:00,61.9,38.5,30.24,North,5,4.0,7.0,42,0.00,,,0.00,meteohub,2013-04-28 01:59:00,
2013-04-27 22:05:00,61.9,39.2,30.24,East,80,2.0,8.0,43,0.00,,,0.00,meteohub,2013-04-28 02:05:00,
2013-04-27 22:11:00,61.5,38.8,30.24,NNW,345,3.0,7.0,43,0.00,,,0.00,meteohub,2013-04-28 02:11:00,
2013-04-27 22:17:00,61.3,39.2,30.24,SSE,153,3.0,6.0,44,0.00,,,0.00,meteohub,2013-04-28 02:17:00,
2013-04-27 22:22:00,61.2,39.0,30.23,East,80,2.0,6.0,44,0.00,,,0.00,meteohub,2013-04-28 02:22:00,
2013-04-27 22:27:00,61.0,38.8,30.23,SW,219,3.0,6.0,44,0.00,,,0.00,meteohub,2013-04-28 02:27:00,
2013-04-27 22:32:00,60.8,39.4,30.23,NW,310,4.0,7.0,45,0.00,,,0.00,meteohub,2013-04-28 02:32:00,
2013-04-27 22:37:00,60.6,39.2,30.23,ENE,62,3.0,7.0,45,0.00,,,0.00,meteohub,2013-04-28 02:37:00,
2013-04-27 22:42:00,60.4,39.0,30.23,NW,315,4.0,8.0,45,0.00,,,0.00,meteohub,2013-04-28 02:42:00,
2013-04-27 22:47:00,60.4,39.0,30.23,SE,145,6.0,8.0,45,0.00,,,0.00,meteohub,2013-04-28 02:47:00,
2013-04-27 22:53:00,60.3,39.4,30.23,SE,124,2.0,8.0,46,0.00,,,0.00,meteohub,2013-04-28 02:53:00,
2013-04-27 22:59:00,59.9,39.6,30.22,NW,306,2.0,6.0,47,0.00,,,0.00,meteohub,2013-04-28 02:59:00,
2013-04-27 23:05:00,59.7,39.4,30.22,West,275,2.0,9.0,47,0.00,,,0.00,meteohub,2013-04-28 03:05:00,
2013-04-27 23:12:00,59.5,39.4,30.22,NNW,333,3.0,9.0,47,0.00,,,0.00,meteohub,2013-04-28 03:12:00,
2013-04-27 23:17:00,59.4,39.2,30.22,NE,38,1.0,9.0,47,0.00,,,0.00,meteohub,2013-04-28 03:17:00,
2013-04-27 23:22:00,59.4,39.7,30.22,NW,308,3.0,8.0,48,0.00,,,0.00,meteohub,2013-04-28 03:22:00,
2013-04-27 23:27:00,59.2,39.6,30.22,SE,140,1.0,8.0,48,0.00,,,0.00,meteohub,2013-04-28 03:27:00,
2013-04-27 23:33:00,58.8,39.7,30.22,ENE,74,2.0,7.0,49,0.00,,,0.00,meteohub,2013-04-28 03:33:00,
2013-04-27 23:39:00,58.8,39.2,30.22,NW,309,2.0,7.0,48,0.00,,,0.00,meteohub,2013-04-28 03:39:00,
2013-04-27 23:45:00,58.6,39.6,30.22,NNW,331,3.0,7.0,49,0.00,,,0.00,meteohub,2013-04-28 03:45:00,
2013-04-27 23:51:00,58.6,39.6,30.22,SSW,197,1.0,5.0,49,0.00,,,0.00,meteohub,2013-04-28 03:51:00,
2013-04-27 23:57:00,58.5,39.4,30.22,SW,231,1.0,9.0,49,0.00,,,0.00,meteohub,2013-04-28 03:57:00,